Mae, Washington
Current Conditions -  °F | °C
As of 3:52 PM on Monday 20 Oct 2014 (Local Time) from KMWH Reporting Station
Overcast Overcast  
Wind Chill: 64°   Ceiling: 7000
Heat Index: 64°   Visibility: 10mi
Dew Point: 51°   Wind: 10mph
Humidity: 63%   Direction: 280°W
Pressure: 29.75"   Gusts: NA
Location:  47.1758°N, 119.289°W
Report Text: KMWH 202252Z 28009KT 10SM BKN070 OVC095 18/11 A2975 RMK AO2 SLP076 T01780106
Loading
Personal Weather Stations






























Interactive Weather Map
Tropical Storm Tracking
New forecast layout! Learn more

10-Day Weather Forecast

Advertisements
Track Severe Weather on mobile